sensor_id;sensor_type;location;lat;lon;timestamp;temperature;humidity
14248;DHT22;7208;49.826;6.004;2023-12-04T00:01:21;-1.80;99.90
14248;DHT22;7208;49.826;6.004;2023-12-04T00:03:47;-1.90;99.90
14248;DHT22;7208;49.826;6.004;2023-12-04T00:06:12;-1.90;99.90
14248;DHT22;7208;49.826;6.004;2023-12-04T00:08:39;-2.00;99.90
14248;DHT22;7208;49.826;6.004;2023-12-04T00:11:05;-2.10;99.90
14248;DHT22;7208;49.826;6.004;2023-12-04T00:13:31;-2.20;99.90
14248;DHT22;7208;49.826;6.004;2023-12-04T00:15:57;-2.20;99.90
14248;DHT22;7208;49.826;6.004;2023-12-04T00:18:23;-2.30;99.90
14248;DHT22;7208;49.826;6.004;2023-12-04T00:20:48;-2.30;99.90
14248;DHT22;7208;49.826;6.004;2023-12-04T00:23:14;-2.30;99.90
14248;DHT22;7208;49.826;6.004;2023-12-04T00:25:40;-2.30;99.90
14248;DHT22;7208;49.826;6.004;2023-12-04T00:28:06;-2.30;99.90
14248;DHT22;7208;49.826;6.004;2023-12-04T00:30:31;-2.40;99.90
14248;DHT22;7208;49.826;6.004;2023-12-04T00:32:57;-2.40;99.90
14248;DHT22;7208;49.826;6.004;2023-12-04T00:35:23;-2.40;99.90
14248;DHT22;7208;49.826;6.004;2023-12-04T00:37:49;-2.40;99.90
14248;DHT22;7208;49.826;6.004;2023-12-04T00:40:14;-2.40;99.90
14248;DHT22;7208;49.826;6.004;2023-12-04T00:42:40;-2.50;99.90
14248;DHT22;7208;49.826;6.004;2023-12-04T00:45:06;-2.50;99.90
14248;DHT22;7208;49.826;6.004;2023-12-04T00:47:32;-2.60;99.90
14248;DHT22;7208;49.826;6.004;2023-12-04T00:49:58;-2.60;99.90
14248;DHT22;7208;49.826;6.004;2023-12-04T00:52:23;-2.60;99.90
14248;DHT22;7208;49.826;6.004;2023-12-04T00:54:49;-2.70;99.90
14248;DHT22;7208;49.826;6.004;2023-12-04T00:57:15;-2.60;99.90
14248;DHT22;7208;49.826;6.004;2023-12-04T00:59:41;-2.70;99.90
14248;DHT22;7208;49.826;6.004;2023-12-04T01:02:07;-2.60;99.90
14248;DHT22;7208;49.826;6.004;2023-12-04T01:04:33;-2.60;99.90
14248;DHT22;7208;49.826;6.004;2023-12-04T01:06:59;-2.70;99.90
14248;DHT22;7208;49.826;6.004;2023-12-04T01:09:24;-2.70;99.90
14248;DHT22;7208;49.826;6.004;2023-12-04T01:11:55;-2.70;99.90
14248;DHT22;7208;49.826;6.004;2023-12-04T01:14:21;-2.70;99.90
14248;DHT22;7208;49.826;6.004;2023-12-04T01:16:47;-2.70;99.90
14248;DHT22;7208;49.826;6.004;2023-12-04T01:19:13;-2.70;99.90
14248;DHT22;7208;49.826;6.004;2023-12-04T01:21:38;-2.80;99.90
14248;DHT22;7208;49.826;6.004;2023-12-04T01:24:04;-2.80;99.90
14248;DHT22;7208;49.826;6.004;2023-12-04T01:26:30;-2.70;99.90
14248;DHT22;7208;49.826;6.004;2023-12-04T01:28:56;-2.70;99.90
14248;DHT22;7208;49.826;6.004;2023-12-04T01:31:22;-2.70;99.90
14248;DHT22;7208;49.826;6.004;2023-12-04T01:33:48;-2.70;99.90
14248;DHT22;7208;49.826;6.004;2023-12-04T01:36:14;-2.70;99.90
14248;DHT22;7208;49.826;6.004;2023-12-04T01:38:39;-2.60;99.90
14248;DHT22;7208;49.826;6.004;2023-12-04T01:41:05;-2.70;99.90
14248;DHT22;7208;49.826;6.004;2023-12-04T01:43:31;-2.70;99.90
14248;DHT22;7208;49.826;6.004;2023-12-04T01:45:59;-2.70;99.90
14248;DHT22;7208;49.826;6.004;2023-12-04T01:48:25;-2.70;99.90
14248;DHT22;7208;49.826;6.004;2023-12-04T01:50:52;-2.80;99.90
14248;DHT22;7208;49.826;6.004;2023-12-04T01:53:18;-2.70;99.90
14248;DHT22;7208;49.826;6.004;2023-12-04T01:55:45;-2.50;99.90
14248;DHT22;7208;49.826;6.004;2023-12-04T01:58:11;-2.50;99.90
14248;DHT22;7208;49.826;6.004;2023-12-04T02:00:37;-2.50;99.90
14248;DHT22;7208;49.826;6.004;2023-12-04T02:03:03;-2.50;99.90
14248;DHT22;7208;49.826;6.004;2023-12-04T02:05:31;-2.50;99.90
14248;DHT22;7208;49.826;6.004;2023-12-04T02:07:57;-2.50;99.90
14248;DHT22;7208;49.826;6.004;2023-12-04T02:10:23;-2.40;99.90
14248;DHT22;7208;49.826;6.004;2023-12-04T02:12:50;-2.40;99.90
14248;DHT22;7208;49.826;6.004;2023-12-04T02:15:15;-2.40;99.90
14248;DHT22;7208;49.826;6.004;2023-12-04T02:17:43;-2.30;99.90
14248;DHT22;7208;49.826;6.004;2023-12-04T02:20:09;-2.40;99.90
14248;DHT22;7208;49.826;6.004;2023-12-04T02:22:38;-2.40;99.90
14248;DHT22;7208;49.826;6.004;2023-12-04T02:25:04;-2.30;99.90
14248;DHT22;7208;49.826;6.004;2023-12-04T02:30:07;-2.30;99.90
14248;DHT22;7208;49.826;6.004;2023-12-04T02:32:36;-2.30;99.90
14248;DHT22;7208;49.826;6.004;2023-12-04T02:35:05;-2.30;99.90
14248;DHT22;7208;49.826;6.004;2023-12-04T02:37:32;-2.30;99.90
14248;DHT22;7208;49.826;6.004;2023-12-04T02:39:58;-2.30;99.90
14248;DHT22;7208;49.826;6.004;2023-12-04T02:42:24;-2.20;99.90
14248;DHT22;7208;49.826;6.004;2023-12-04T02:44:51;-2.30;99.90
14248;DHT22;7208;49.826;6.004;2023-12-04T02:47:17;-2.20;99.90
14248;DHT22;7208;49.826;6.004;2023-12-04T02:49:43;-2.20;99.90
14248;DHT22;7208;49.826;6.004;2023-12-04T02:52:09;-2.20;99.90
14248;DHT22;7208;49.826;6.004;2023-12-04T02:54:34;-2.20;99.90
14248;DHT22;7208;49.826;6.004;2023-12-04T02:57:00;-2.20;99.90
14248;DHT22;7208;49.826;6.004;2023-12-04T02:59:26;-2.20;99.90
14248;DHT22;7208;49.826;6.004;2023-12-04T03:01:51;-2.20;99.90
14248;DHT22;7208;49.826;6.004;2023-12-04T03:04:18;-2.20;99.90
14248;DHT22;7208;49.826;6.004;2023-12-04T03:06:44;-2.20;99.90
14248;DHT22;7208;49.826;6.004;2023-12-04T03:09:10;-2.20;99.90
14248;DHT22;7208;49.826;6.004;2023-12-04T03:11:35;-2.20;99.90
14248;DHT22;7208;49.826;6.004;2023-12-04T03:14:04;-2.20;99.90
14248;DHT22;7208;49.826;6.004;2023-12-04T03:16:30;-2.20;99.90
14248;DHT22;7208;49.826;6.004;2023-12-04T03:18:55;-2.30;99.90
14248;DHT22;7208;49.826;6.004;2023-12-04T03:21:21;-2.30;99.90
14248;DHT22;7208;49.826;6.004;2023-12-04T03:23:47;-2.30;99.90
14248;DHT22;7208;49.826;6.004;2023-12-04T03:26:12;-2.30;99.90
14248;DHT22;7208;49.826;6.004;2023-12-04T03:28:38;-2.20;99.90
14248;DHT22;7208;49.826;6.004;2023-12-04T03:31:05;-2.20;99.90
14248;DHT22;7208;49.826;6.004;2023-12-04T03:33:31;-2.20;99.90
14248;DHT22;7208;49.826;6.004;2023-12-04T03:36:01;-2.20;99.90
14248;DHT22;7208;49.826;6.004;2023-12-04T03:38:26;-2.10;99.90
14248;DHT22;7208;49.826;6.004;2023-12-04T03:40:52;-2.10;99.90
14248;DHT22;7208;49.826;6.004;2023-12-04T03:43:18;-2.10;99.90
14248;DHT22;7208;49.826;6.004;2023-12-04T03:45:44;-2.10;99.90
14248;DHT22;7208;49.826;6.004;2023-12-04T03:48:09;-2.10;99.90
14248;DHT22;7208;49.826;6.004;2023-12-04T03:50:35;-2.10;99.90
14248;DHT22;7208;49.826;6.004;2023-12-04T03:53:01;-2.10;99.90
14248;DHT22;7208;49.826;6.004;2023-12-04T03:55:26;-2.10;99.90
14248;DHT22;7208;49.826;6.004;2023-12-04T03:57:53;-2.00;99.90
14248;DHT22;7208;49.826;6.004;2023-12-04T04:00:19;-2.10;99.90
14248;DHT22;7208;49.826;6.004;2023-12-04T04:02:45;-2.00;99.90
14248;DHT22;7208;49.826;6.004;2023-12-04T04:05:11;-2.00;99.90
14248;DHT22;7208;49.826;6.004;2023-12-04T04:07:36;-2.00;99.90
14248;DHT22;7208;49.826;6.004;2023-12-04T04:10:02;-2.00;99.90
14248;DHT22;7208;49.826;6.004;2023-12-04T04:12:30;-2.00;99.90
14248;DHT22;7208;49.826;6.004;2023-12-04T04:14:56;-1.90;99.90
14248;DHT22;7208;49.826;6.004;2023-12-04T04:17:22;-1.90;99.90
14248;DHT22;7208;49.826;6.004;2023-12-04T04:19:47;-1.90;99.90
14248;DHT22;7208;49.826;6.004;2023-12-04T04:22:13;-1.90;99.90
14248;DHT22;7208;49.826;6.004;2023-12-04T04:24:39;-1.90;99.90
14248;DHT22;7208;49.826;6.004;2023-12-04T04:27:04;-1.90;99.90
14248;DHT22;7208;49.826;6.004;2023-12-04T04:29:30;-1.90;99.90
14248;DHT22;7208;49.826;6.004;2023-12-04T04:31:56;-1.90;99.90
14248;DHT22;7208;49.826;6.004;2023-12-04T04:34:22;-1.90;99.90
14248;DHT22;7208;49.826;6.004;2023-12-04T04:36:47;-1.90;99.90
14248;DHT22;7208;49.826;6.004;2023-12-04T04:39:13;-1.90;99.90
14248;DHT22;7208;49.826;6.004;2023-12-04T04:41:39;-1.80;99.90
14248;DHT22;7208;49.826;6.004;2023-12-04T04:44:05;-1.80;99.90
14248;DHT22;7208;49.826;6.004;2023-12-04T04:46:32;-1.80;99.90
14248;DHT22;7208;49.826;6.004;2023-12-04T04:48:57;-1.80;99.90
14248;DHT22;7208;49.826;6.004;2023-12-04T04:51:23;-1.80;99.90
14248;DHT22;7208;49.826;6.004;2023-12-04T04:53:49;-1.80;99.90
